createdAt,value
2019-03-21T00:00:18.286Z,7.53
2019-03-21T00:02:45.491Z,6.77
2019-03-21T00:05:12.727Z,7.50
2019-03-21T00:07:39.958Z,6.93
2019-03-21T00:10:25.167Z,6.93
2019-03-21T00:12:52.405Z,7.97
2019-03-21T00:15:23.797Z,7.13
2019-03-21T00:17:52.715Z,7.37
2019-03-21T00:20:20.282Z,7.43
2019-03-21T00:22:47.507Z,6.70
2019-03-21T00:25:16.389Z,7.67
2019-03-21T00:27:43.625Z,7.23
2019-03-21T00:30:12.622Z,7.97
2019-03-21T00:32:40.110Z,7.40
2019-03-21T00:35:08.406Z,7.90
2019-03-21T00:37:35.629Z,7.70
2019-03-21T00:40:03.434Z,8.10
2019-03-21T00:42:30.674Z,7.60
2019-03-21T00:44:57.891Z,6.87
2019-03-21T00:47:25.095Z,6.77
2019-03-21T00:49:52.330Z,6.93
2019-03-21T00:52:19.541Z,6.67
2019-03-21T00:54:47.118Z,6.33
2019-03-21T00:57:14.353Z,6.40
2019-03-21T00:59:41.830Z,6.87
2019-03-21T01:02:09.066Z,6.23
2019-03-21T01:04:36.298Z,7.10
2019-03-21T01:07:04.136Z,6.53
2019-03-21T01:09:31.647Z,6.73
2019-03-21T01:11:59.201Z,7.00
2019-03-21T01:14:29.982Z,7.40
2019-03-21T01:16:55.650Z,7.07
2019-03-21T01:19:22.972Z,7.50
2019-03-21T01:21:50.175Z,6.30
2019-03-21T01:24:17.721Z,6.77
2019-03-21T01:26:45.270Z,7.20
2019-03-21T01:29:12.481Z,7.43
2019-03-21T01:31:39.982Z,6.93
2019-03-21T01:34:07.541Z,7.80
2019-03-21T01:36:34.769Z,7.07
2019-03-21T01:39:01.982Z,7.37
2019-03-21T01:41:29.203Z,7.53
2019-03-21T01:43:56.438Z,7.47
2019-03-21T01:46:26.575Z,7.70
2019-03-21T01:48:53.773Z,7.30
2019-03-21T01:51:21.274Z,8.23
2019-03-21T01:53:48.549Z,7.57
2019-03-21T01:56:15.750Z,7.87
2019-03-21T01:58:44.979Z,7.70
2019-03-21T02:01:11.919Z,7.90
2019-03-21T02:03:39.147Z,7.47
2019-03-21T02:06:06.354Z,8.00
2019-03-21T02:08:33.591Z,7.60
2019-03-21T02:11:00.836Z,8.33
2019-03-21T02:13:28.181Z,7.27
2019-03-21T02:15:55.430Z,7.97
2019-03-21T02:18:22.622Z,7.70
2019-03-21T02:20:49.846Z,7.20
2019-03-21T02:23:17.091Z,7.37
2019-03-21T02:25:44.931Z,7.27
2019-03-21T02:28:12.161Z,8.07
2019-03-21T02:30:39.963Z,8.17
2019-03-21T02:33:08.705Z,7.77
2019-03-21T02:35:36.195Z,8.40
2019-03-21T02:38:03.767Z,8.37
2019-03-21T02:40:31.311Z,8.73
2019-03-21T02:42:58.547Z,8.90
2019-03-21T02:45:26.020Z,8.50
2019-03-21T02:47:53.301Z,7.97
2019-03-21T02:50:24.631Z,8.47
2019-03-21T02:52:51.864Z,8.27
2019-03-21T02:55:19.089Z,8.73
2019-03-21T02:57:46.332Z,8.20
2019-03-21T03:00:15.218Z,8.37
2019-03-21T03:02:42.431Z,7.87
2019-03-21T03:05:11.507Z,8.10
2019-03-21T03:07:38.724Z,7.40
2019-03-21T03:10:07.504Z,8.10
2019-03-21T03:12:35.012Z,8.30
2019-03-21T03:15:02.602Z,8.10
2019-03-21T03:17:29.844Z,8.00
2019-03-21T03:19:57.371Z,8.33
2019-03-21T03:22:24.930Z,8.20
2019-03-21T03:24:52.138Z,8.20
2019-03-21T03:27:19.374Z,8.40
2019-03-21T03:29:46.894Z,8.93
2019-03-21T03:32:14.120Z,9.00
2019-03-21T03:34:41.328Z,8.60
2019-03-21T03:37:08.562Z,8.30
2019-03-21T03:39:37.175Z,8.80
2019-03-21T03:42:04.479Z,8.03
2019-03-21T03:44:32.034Z,8.70
2019-03-21T03:46:59.272Z,9.03
2019-03-21T03:49:26.478Z,7.63
2019-03-21T03:51:53.999Z,8.23
2019-03-21T03:54:21.237Z,7.97
2019-03-21T03:56:48.449Z,8.80
2019-03-21T03:59:15.661Z,7.80
2019-03-21T04:01:42.928Z,8.83
2019-03-21T04:04:10.220Z,8.93
2019-03-21T04:06:37.821Z,8.80
2019-03-21T04:09:05.911Z,9.17
2019-03-21T04:11:33.159Z,8.53
2019-03-21T04:14:00.408Z,8.63
2019-03-21T04:16:27.622Z,8.93
2019-03-21T04:18:54.842Z,9.57
2019-03-21T04:21:22.344Z,9.23
2019-03-21T04:23:49.578Z,9.57
2019-03-21T04:26:27.385Z,8.90
2019-03-21T04:28:54.649Z,9.50
2019-03-21T04:31:21.917Z,9.33
2019-03-21T04:33:50.503Z,9.40
2019-03-21T04:36:17.731Z,9.07
2019-03-21T04:38:44.950Z,9.43
2019-03-21T04:41:12.172Z,9.23
2019-03-21T04:43:39.382Z,9.37
2019-03-21T04:46:06.618Z,9.70
2019-03-21T04:48:33.830Z,10.23
2019-03-21T04:51:01.745Z,9.77
2019-03-21T04:53:28.970Z,9.80
2019-03-21T04:55:56.206Z,9.23
2019-03-21T04:58:23.427Z,9.63
2019-03-21T05:00:54.944Z,9.93
2019-03-21T05:03:23.638Z,9.57
2019-03-21T05:05:50.847Z,9.67
2019-03-21T05:08:18.083Z,9.87
2019-03-21T05:10:45.599Z,10.03
2019-03-21T05:13:12.837Z,9.27
2019-03-21T05:15:44.346Z,9.70
2019-03-21T05:18:13.414Z,10.73
2019-03-21T05:20:40.651Z,9.47
2019-03-21T05:23:07.872Z,9.53
2019-03-21T05:25:35.082Z,10.30
2019-03-21T05:28:02.600Z,9.37
2019-03-21T05:30:46.742Z,10.17
2019-03-21T05:33:14.306Z,9.50
2019-03-21T05:35:41.527Z,9.77
2019-03-21T05:38:09.134Z,9.63
2019-03-21T05:40:36.345Z,10.00
2019-03-21T05:43:08.534Z,9.67
2019-03-21T05:45:36.102Z,9.57
2019-03-21T05:48:03.319Z,9.90
2019-03-21T05:50:30.553Z,9.20
2019-03-21T05:52:57.765Z,8.80
2019-03-21T05:55:26.825Z,9.90
2019-03-21T05:57:54.397Z,9.60
2019-03-21T06:00:23.205Z,10.10
2019-03-21T06:02:50.454Z,10.27
2019-03-21T06:05:17.686Z,9.77
2019-03-21T06:07:49.202Z,10.47
2019-03-21T06:10:17.796Z,11.07
2019-03-21T06:12:45.499Z,10.17
2019-03-21T06:15:26.533Z,9.87
2019-03-21T06:18:04.273Z,10.50
2019-03-21T06:20:33.055Z,9.60
2019-03-21T06:23:02.143Z,8.37
2019-03-21T06:25:33.885Z,9.17
2019-03-21T06:28:01.080Z,8.93
2019-03-21T06:30:28.318Z,9.27
2019-03-21T06:32:55.526Z,8.00
2019-03-21T06:35:22.738Z,8.77
2019-03-21T06:37:49.979Z,8.13
2019-03-21T06:40:17.518Z,8.63
2019-03-21T06:42:44.766Z,8.60
2019-03-21T06:47:44.821Z,8.00
2019-03-21T06:50:12.447Z,7.80
2019-03-21T06:52:39.708Z,7.93
2019-03-21T06:55:07.361Z,7.50
2019-03-21T06:57:34.570Z,7.60
2019-03-21T07:00:01.860Z,7.57
2019-03-21T07:02:29.066Z,8.23
2019-03-21T07:04:56.314Z,7.73
2019-03-21T07:07:23.814Z,7.47
2019-03-21T07:09:51.069Z,7.20
2019-03-21T07:12:18.348Z,8.13
2019-03-21T07:14:45.602Z,7.97
2019-03-21T07:17:12.843Z,7.27
2019-03-21T07:19:40.072Z,7.57
2019-03-21T07:22:07.312Z,7.37
2019-03-21T07:24:34.878Z,7.00
2019-03-21T07:27:02.095Z,7.40
2019-03-21T07:29:29.330Z,6.00
2019-03-21T07:31:56.552Z,6.97
2019-03-21T07:34:24.090Z,7.23
2019-03-21T07:36:51.651Z,7.00
2019-03-21T07:39:18.871Z,7.03
2019-03-21T07:41:46.097Z,7.20
2019-03-21T07:44:14.009Z,7.20
2019-03-21T07:46:41.576Z,7.30
2019-03-21T07:49:08.806Z,7.50
2019-03-21T07:51:36.030Z,7.00
2019-03-21T07:54:03.533Z,7.23
2019-03-21T07:56:30.743Z,7.87
2019-03-21T07:58:58.059Z,7.30
2019-03-21T08:01:25.258Z,7.20
2019-03-21T08:03:52.494Z,8.10
2019-03-21T08:06:19.706Z,8.20
2019-03-21T08:08:46.938Z,7.80
2019-03-21T08:11:14.158Z,8.07
2019-03-21T08:13:41.387Z,7.63
2019-03-21T08:16:08.595Z,7.93
2019-03-21T08:18:35.820Z,7.03
2019-03-21T08:21:03.019Z,7.20
2019-03-21T08:23:30.249Z,6.67
2019-03-21T08:25:57.797Z,7.87
2019-03-21T08:28:25.039Z,8.03
2019-03-21T08:31:03.049Z,7.33
2019-03-21T08:33:30.285Z,7.63
2019-03-21T08:35:57.813Z,7.40
2019-03-21T08:38:25.078Z,7.70
2019-03-21T08:40:53.382Z,8.10
2019-03-21T08:43:20.952Z,7.93
2019-03-21T08:45:48.182Z,7.53
2019-03-21T08:48:15.414Z,7.73
2019-03-21T08:50:42.645Z,8.07
2019-03-21T08:53:09.884Z,8.13
2019-03-21T08:55:37.411Z,7.57
2019-03-21T08:58:04.967Z,7.57
2019-03-21T09:00:34.356Z,8.10
2019-03-21T09:03:01.556Z,8.30
2019-03-21T09:05:28.758Z,7.60
2019-03-21T09:07:55.991Z,7.97
2019-03-21T09:10:23.481Z,7.97
2019-03-21T09:12:50.705Z,8.10
2019-03-21T09:15:18.188Z,8.67
2019-03-21T09:17:45.434Z,7.77
2019-03-21T09:20:12.650Z,7.93
2019-03-21T09:22:40.255Z,7.20
2019-03-21T09:25:07.626Z,8.00
2019-03-21T09:27:35.158Z,7.57
2019-03-21T09:30:02.384Z,7.30
2019-03-21T09:32:29.593Z,8.03
2019-03-21T09:34:56.839Z,7.47
2019-03-21T09:37:24.383Z,7.63
2019-03-21T09:39:51.591Z,7.33
2019-03-21T09:42:19.080Z,7.40
2019-03-21T09:44:46.310Z,7.97
2019-03-21T09:47:13.886Z,8.10
2019-03-21T09:49:41.128Z,9.37
2019-03-21T09:52:08.353Z,10.43
2019-03-21T09:54:35.561Z,8.90
2019-03-21T09:57:03.107Z,10.07
2019-03-21T09:59:30.315Z,8.10
2019-03-21T10:01:57.546Z,8.40
2019-03-21T10:04:24.771Z,8.20
2019-03-21T10:06:52.022Z,8.67
2019-03-21T10:09:19.554Z,7.55
2019-03-21T10:11:47.117Z,7.60
2019-03-21T10:14:14.330Z,7.77
2019-03-21T10:16:41.557Z,7.60
2019-03-21T10:19:08.770Z,8.20
2019-03-21T10:21:43.139Z,7.27
2019-03-21T10:24:05.219Z,7.90
2019-03-21T10:26:32.779Z,7.20
2019-03-21T10:29:00.342Z,6.77
2019-03-21T10:31:27.569Z,7.62
2019-03-21T10:33:54.775Z,7.05
2019-03-21T10:36:22.028Z,6.60
2019-03-21T10:38:49.544Z,6.90
2019-03-21T10:41:16.827Z,6.37
2019-03-21T10:43:44.104Z,6.58
2019-03-21T10:46:11.599Z,5.37
2019-03-21T10:48:39.060Z,6.42
2019-03-21T10:51:06.271Z,5.95
2019-03-21T10:53:33.501Z,5.72
2019-03-21T10:56:00.709Z,5.65
2019-03-21T10:58:28.274Z,6.47
2019-03-21T11:00:55.830Z,6.30
2019-03-21T11:03:23.390Z,6.30
2019-03-21T11:05:50.864Z,5.83
2019-03-21T11:08:18.078Z,5.80
2019-03-21T11:10:47.212Z,6.35
2019-03-21T11:13:14.543Z,5.95
2019-03-21T11:15:41.750Z,6.22
2019-03-21T11:18:08.990Z,5.50
2019-03-21T11:20:36.866Z,5.40
2019-03-21T11:23:04.792Z,6.55
2019-03-21T11:25:31.986Z,5.40
2019-03-21T11:27:59.223Z,6.27
2019-03-21T11:30:30.945Z,5.83
2019-03-21T11:32:58.182Z,5.87
2019-03-21T11:35:25.390Z,6.07
2019-03-21T11:37:52.903Z,5.87
2019-03-21T11:40:20.555Z,5.50
2019-03-21T11:42:47.766Z,6.40
2019-03-21T11:45:15.222Z,5.87
2019-03-21T11:47:42.598Z,5.87
2019-03-21T11:50:10.175Z,5.83
2019-03-21T11:52:37.630Z,6.00
2019-03-21T11:55:06.727Z,5.80
2019-03-21T11:57:33.949Z,6.00
2019-03-21T12:00:01.570Z,5.60
2019-03-21T12:02:28.774Z,5.10
2019-03-21T12:04:55.982Z,5.13
2019-03-21T12:07:23.219Z,5.33
2019-03-21T12:09:50.430Z,5.40
2019-03-21T12:12:18.018Z,5.80
2019-03-21T12:14:45.223Z,5.60
2019-03-21T12:17:13.030Z,5.30
2019-03-21T12:19:40.566Z,5.03
2019-03-21T12:22:07.768Z,4.50
2019-03-21T12:24:35.005Z,4.60
2019-03-21T12:27:02.217Z,4.77
2019-03-21T12:29:29.774Z,5.33
2019-03-21T12:31:57.241Z,4.90
2019-03-21T12:34:24.796Z,5.23
2019-03-21T12:36:52.000Z,4.70
2019-03-21T12:39:19.226Z,5.07
2019-03-21T12:41:46.462Z,5.10
2019-03-21T12:44:14.001Z,5.60
2019-03-21T12:46:41.563Z,5.20
2019-03-21T12:49:08.787Z,5.17
2019-03-21T12:51:36.020Z,4.80
2019-03-21T12:54:03.230Z,5.43
2019-03-21T12:56:30.472Z,5.37
2019-03-21T12:58:57.689Z,4.63
2019-03-21T13:01:25.172Z,5.10
2019-03-21T13:03:52.398Z,4.80
2019-03-21T13:06:19.611Z,4.83
2019-03-21T13:08:46.833Z,4.80
2019-03-21T13:11:14.037Z,4.60
2019-03-21T13:13:41.264Z,4.70
2019-03-21T13:16:08.512Z,4.40
2019-03-21T13:18:35.746Z,4.67
2019-03-21T13:21:02.974Z,4.70
2019-03-21T13:23:30.202Z,4.70
2019-03-21T13:25:57.406Z,4.63
2019-03-21T13:28:24.650Z,4.40
2019-03-21T13:30:51.858Z,4.37
2019-03-21T13:33:19.339Z,4.07
2019-03-21T13:35:46.544Z,4.47
2019-03-21T13:38:13.762Z,4.93
2019-03-21T13:40:40.984Z,3.83
2019-03-21T13:43:11.134Z,3.60
2019-03-21T13:45:37.505Z,4.33
2019-03-21T13:48:04.806Z,4.67
2019-03-21T13:50:32.036Z,3.80
2019-03-21T13:53:04.858Z,4.00
2019-03-21T13:55:28.487Z,4.70
2019-03-21T13:57:55.890Z,4.30
2019-03-21T14:00:23.187Z,4.47
2019-03-21T14:02:50.398Z,4.80
2019-03-21T14:05:17.610Z,5.50
2019-03-21T14:07:44.842Z,6.17
2019-03-21T14:10:12.146Z,6.10
2019-03-21T14:12:39.350Z,6.87
2019-03-21T14:15:07.466Z,6.57
2019-03-21T14:17:34.694Z,6.40
2019-03-21T14:20:01.906Z,6.00
2019-03-21T14:22:29.122Z,5.43
2019-03-21T14:24:56.634Z,5.97
2019-03-21T14:27:26.066Z,6.37
2019-03-21T14:30:01.304Z,6.17
2019-03-21T14:32:22.070Z,5.97
2019-03-21T14:34:49.635Z,6.20
2019-03-21T14:37:16.882Z,6.60
2019-03-21T14:39:44.079Z,5.97
2019-03-21T14:42:11.315Z,6.30
2019-03-21T14:44:38.521Z,5.43
2019-03-21T14:47:05.749Z,5.93
2019-03-21T14:49:33.243Z,5.83
2019-03-21T14:52:00.452Z,5.20
2019-03-21T14:54:27.678Z,4.87
2019-03-21T14:56:55.197Z,5.47
2019-03-21T14:59:22.662Z,6.90
2019-03-21T15:01:49.907Z,6.90
2019-03-21T15:04:17.365Z,6.00
2019-03-21T15:06:44.598Z,7.30
2019-03-21T15:09:11.801Z,6.20
2019-03-21T15:11:39.135Z,6.53
2019-03-21T15:14:06.347Z,6.53
2019-03-21T15:16:33.547Z,6.47
2019-03-21T15:19:01.617Z,6.80
2019-03-21T15:21:28.838Z,6.40
2019-03-21T15:23:59.697Z,6.20
2019-03-21T15:26:24.989Z,5.60
2019-03-21T15:28:52.190Z,5.50
2019-03-21T15:31:19.424Z,5.80
2019-03-21T15:33:46.604Z,5.60
2019-03-21T15:36:13.822Z,6.30
2019-03-21T15:38:41.333Z,6.43
2019-03-21T15:41:08.566Z,5.83
2019-03-21T15:43:35.885Z,5.77
2019-03-21T15:46:03.413Z,5.07
2019-03-21T15:48:30.625Z,5.43
2019-03-21T15:51:04.506Z,6.67
2019-03-21T15:53:26.766Z,6.57
2019-03-21T15:55:53.999Z,5.87
2019-03-21T15:58:21.310Z,5.70
2019-03-21T16:00:48.557Z,5.63
2019-03-21T16:03:15.785Z,5.90
2019-03-21T16:05:42.990Z,6.20
2019-03-21T16:08:10.268Z,6.83
2019-03-21T16:10:37.566Z,6.20
2019-03-21T16:13:04.763Z,6.03
2019-03-21T16:15:32.260Z,6.83
2019-03-21T16:17:59.471Z,7.00
2019-03-21T16:20:26.688Z,7.00
2019-03-21T16:22:53.918Z,5.40
2019-03-21T16:25:21.136Z,6.07
2019-03-21T16:27:48.358Z,5.90
2019-03-21T16:30:15.585Z,4.97
2019-03-21T16:32:42.817Z,4.97
2019-03-21T16:35:10.045Z,4.50
2019-03-21T16:37:37.312Z,4.97
2019-03-21T16:40:05.692Z,4.30
2019-03-21T16:42:32.889Z,4.90
2019-03-21T16:45:00.354Z,4.97
2019-03-21T16:47:27.848Z,4.90
2019-03-21T16:49:55.313Z,3.93
2019-03-21T16:52:22.536Z,4.60
2019-03-21T16:54:49.740Z,4.70
2019-03-21T16:57:17.305Z,4.70
2019-03-21T16:59:44.615Z,4.83
2019-03-21T17:02:11.818Z,5.27
2019-03-21T17:04:39.013Z,5.47
2019-03-21T17:07:06.253Z,5.40
2019-03-21T17:09:33.441Z,4.83
2019-03-21T17:12:01.315Z,5.37
2019-03-21T17:14:28.800Z,5.00
2019-03-21T17:16:56.317Z,4.80
2019-03-21T17:19:23.760Z,5.00
2019-03-21T17:21:50.997Z,5.27
2019-03-21T17:24:28.688Z,4.43
2019-03-21T17:26:47.124Z,4.80
2019-03-21T17:29:14.342Z,4.70
2019-03-21T17:31:41.540Z,4.87
2019-03-21T17:34:08.773Z,4.90
2019-03-21T17:36:35.977Z,5.03
2019-03-21T17:39:05.049Z,5.00
2019-03-21T17:41:32.254Z,5.50
2019-03-21T17:43:59.447Z,5.00
2019-03-21T17:46:26.681Z,5.30
2019-03-21T17:48:53.897Z,4.80
2019-03-21T17:51:21.184Z,4.57
2019-03-21T17:53:48.408Z,4.47
2019-03-21T17:56:15.625Z,5.60
2019-03-21T17:58:43.161Z,5.43
2019-03-21T18:01:10.386Z,4.90
2019-03-21T18:03:37.868Z,5.30
2019-03-21T18:06:05.092Z,5.67
2019-03-21T18:08:32.321Z,5.23
2019-03-21T18:10:59.557Z,5.00
2019-03-21T18:13:26.817Z,5.13
2019-03-21T18:15:54.028Z,4.70
2019-03-21T18:18:21.230Z,4.03
2019-03-21T18:20:48.468Z,4.73
2019-03-21T18:23:15.688Z,5.00
2019-03-21T18:25:42.892Z,5.63
2019-03-21T18:28:10.113Z,5.63
2019-03-21T18:30:37.364Z,5.73
2019-03-21T18:33:04.882Z,5.63
2019-03-21T18:35:32.112Z,5.37
2019-03-21T18:37:59.309Z,6.50
2019-03-21T18:40:26.538Z,5.80
2019-03-21T18:42:54.096Z,6.33
2019-03-21T18:45:21.557Z,5.60
2019-03-21T18:47:48.785Z,6.93
2019-03-21T18:50:16.050Z,6.23
2019-03-21T18:52:43.342Z,6.50
2019-03-21T18:55:10.605Z,6.30
2019-03-21T18:57:37.836Z,6.50
2019-03-21T19:00:06.693Z,6.50
2019-03-21T19:02:33.918Z,6.70
2019-03-21T19:05:01.410Z,6.30
2019-03-21T19:07:28.653Z,6.43
2019-03-21T19:09:55.861Z,6.50
2019-03-21T19:12:23.069Z,6.43
2019-03-21T19:14:50.289Z,6.67
2019-03-21T19:17:17.769Z,6.93
2019-03-21T19:19:44.993Z,7.17
2019-03-21T19:22:12.225Z,6.80
2019-03-21T19:24:39.466Z,6.43
2019-03-21T19:27:06.986Z,6.57
2019-03-21T19:29:34.236Z,7.27
2019-03-21T19:32:02.133Z,7.10
2019-03-21T19:34:29.394Z,6.90
2019-03-21T19:36:56.619Z,6.53
2019-03-21T19:39:23.850Z,7.00
2019-03-21T19:41:51.066Z,7.20
2019-03-21T19:44:18.294Z,7.20
2019-03-21T19:46:45.503Z,6.93
2019-03-21T19:49:12.732Z,7.10
2019-03-21T19:51:39.945Z,7.10
2019-03-21T19:54:07.263Z,7.37
2019-03-21T19:56:34.822Z,7.57
2019-03-21T19:59:02.022Z,7.30
2019-03-21T20:01:29.243Z,7.20
2019-03-21T20:03:56.468Z,7.27
2019-03-21T20:06:23.684Z,7.90
2019-03-21T20:08:50.921Z,8.13
2019-03-21T20:11:18.422Z,8.60
2019-03-21T20:13:45.641Z,8.33
2019-03-21T20:16:12.846Z,8.27
2019-03-21T20:18:40.077Z,8.67
2019-03-21T20:21:07.285Z,12.00
2019-03-21T20:23:34.521Z,12.07
2019-03-21T20:26:01.732Z,13.53
2019-03-21T20:28:28.966Z,13.07
2019-03-21T20:30:56.185Z,11.87
2019-03-21T20:33:23.412Z,12.53
2019-03-21T20:35:50.644Z,11.30
2019-03-21T20:38:18.189Z,12.07
2019-03-21T20:40:45.410Z,11.30
2019-03-21T20:43:12.633Z,11.17
2019-03-21T20:45:39.836Z,10.93
2019-03-21T20:48:07.057Z,10.23
2019-03-21T20:50:34.283Z,11.10
2019-03-21T20:53:01.801Z,10.80
2019-03-21T20:55:29.029Z,11.87
2019-03-21T20:57:56.244Z,11.50
2019-03-21T21:00:23.545Z,11.90
2019-03-21T21:02:51.324Z,10.53
2019-03-21T21:05:18.595Z,11.27
2019-03-21T21:07:45.810Z,11.33
2019-03-21T21:10:13.831Z,10.23
2019-03-21T21:12:41.054Z,10.60
2019-03-21T21:15:09.633Z,10.77
2019-03-21T21:17:36.866Z,10.40
2019-03-21T21:20:08.080Z,10.47
2019-03-21T21:22:35.322Z,10.07
2019-03-21T21:25:02.525Z,10.70
2019-03-21T21:27:29.733Z,10.40
2019-03-21T21:29:56.970Z,10.27
2019-03-21T21:32:24.178Z,11.20
2019-03-21T21:34:51.421Z,10.77
2019-03-21T21:37:18.720Z,10.60
2019-03-21T21:39:45.954Z,9.67
2019-03-21T21:42:13.169Z,9.13
2019-03-21T21:44:40.413Z,9.50
2019-03-21T21:47:08.484Z,9.07
2019-03-21T21:49:35.699Z,9.10
2019-03-21T21:52:02.931Z,9.53
2019-03-21T21:54:30.169Z,7.70
2019-03-21T21:56:57.424Z,8.50
2019-03-21T21:59:24.633Z,8.60
2019-03-21T22:01:52.209Z,8.37
2019-03-21T22:04:19.448Z,7.83
2019-03-21T22:06:46.653Z,7.80
2019-03-21T22:09:13.861Z,8.10
2019-03-21T22:11:41.433Z,8.13
2019-03-21T22:14:08.647Z,8.47
2019-03-21T22:16:35.858Z,8.23
2019-03-21T22:19:03.064Z,7.90
2019-03-21T22:21:32.653Z,7.47
2019-03-21T22:23:59.873Z,7.97
2019-03-21T22:26:29.788Z,7.60
2019-03-21T22:28:56.078Z,8.50
2019-03-21T22:31:23.308Z,7.83
2019-03-21T22:33:50.510Z,8.33
2019-03-21T22:36:17.750Z,7.90
2019-03-21T22:38:45.296Z,7.50
2019-03-21T22:41:12.518Z,7.37
2019-03-21T22:43:39.754Z,7.00
2019-03-21T22:46:07.241Z,7.07
2019-03-21T22:48:34.467Z,6.63
2019-03-21T22:51:01.664Z,6.60
2019-03-21T22:53:30.203Z,7.10
2019-03-21T22:55:57.581Z,7.47
2019-03-21T22:58:31.625Z,7.23
2019-03-21T23:00:55.207Z,7.30
2019-03-21T23:03:22.405Z,6.90
2019-03-21T23:05:49.630Z,7.30
2019-03-21T23:08:17.109Z,7.50
2019-03-21T23:10:45.229Z,7.37
2019-03-21T23:13:12.614Z,7.37
2019-03-21T23:15:40.091Z,7.80
2019-03-21T23:18:07.284Z,7.30
2019-03-21T23:20:34.802Z,7.43
2019-03-21T23:23:02.007Z,6.83
2019-03-21T23:25:29.508Z,6.93
2019-03-21T23:27:56.751Z,7.63
2019-03-21T23:30:24.034Z,7.47
2019-03-21T23:32:51.244Z,7.63
2019-03-21T23:35:18.461Z,7.77
2019-03-21T23:37:45.670Z,8.03
2019-03-21T23:40:13.564Z,8.40
2019-03-21T23:42:40.796Z,8.00
2019-03-21T23:45:08.780Z,8.47
2019-03-21T23:47:36.008Z,7.87
2019-03-21T23:50:04.482Z,8.17
2019-03-21T23:52:31.708Z,8.20
2019-03-21T23:54:59.185Z,8.10
2019-03-21T23:57:26.409Z,8.83
2019-03-21T23:59:53.642Z,8.57
